Tiempo atmosférico en la estación meteorológica de Morón De La Frontera, Sevilla (87 m.)



Fecha
DESCASC
Temp. máxima en grados centígrados (hora)
DESCASC
Temp. mínima en grados centígrados (hora)
DESCASC
Temp. media en grados centígrados
DESCASC
Racha de viento máxima en m/sg (hora)
DESCASC
Velocidad máxima media en intervalos de 10 minutos(hora)
DESCASC
Precipitaciones diarias en mm
DESCASC
Precipitaciones de 00:00 a 06:00 en mm
DESCASC
Precipitaciones de 06:00 a 12:00 en mm
DESCASC
Precipitaciones de 12:00 a 18:00 en mm
DESCASC
Precipitaciones de 18:00 a 24:00 en mm
DESCASC
15-11-2018 20.9 (15:00) 11.2 (08:40) 16 6.11 (03:00) 3.61 (02:30) 0 0 0 0 0
14-11-2018 22.5 (14:20) 13.7 (08:00) 18.1 8.33 (16:50) 4.17 (13:40) 0 0 0 0 0
13-11-2018 20.1 (14:40) 12.2 (08:30) 16.2 5.83 (22:30) 3.33 (23:10) 0 0 0 0 0
12-11-2018 17.8 (14:40) 12.3 (03:10) 15 7.22 (09:40) 4.72 (10:10) 11 2.6 8.3 0.1 0
11-11-2018 22.9 (16:10) 13.4 (00:00) 18.1 7.5 (17:40) 4.17 (17:50) 0.3 0 0.3 0 0
10-11-2018 17.1 (14:10) 9 (00:00) 13.1 5.83 (17:00) 3.61 (09:00) 0.2 0 0 0.2 0
09-11-2018 17.8 (16:00) 7 (00:00) 12.4 5.83 (18:20) 3.61 (18:30) 0 0 0 0 0
08-11-2018 16.3 (13:40) 12.5 (00:00) 14.4 11.39 (14:40) 7.5 (14:40) 18.5 0.2 2.8 15.5 0
07-11-2018 17.5 (12:10) 11.7 (00:00) 14.6 11.39 (12:10) 6.67 (12:10) 2.1 0 0 2.1 0
06-11-2018 17.9 (16:30) 6.3 (00:00) 12.1 5.56 (14:50) 2.78 (17:10) 0 0 0 0 0
05-11-2018 17.8 (14:10) 9.6 (00:00) 13.7 13.61 (04:10) 8.89 (04:10) 9.8 9.4 0.4 0 0
04-11-2018 15.8 (16:40) 7.9 (00:00) 11.9 7.22 (14:20) 4.17 (14:20) 0 0 0 0 0
03-11-2018 19.2 (16:40) 9.8 (00:00) 14.5 5.83 (11:50) 4.17 (11:50) 0 0 0 0 0
02-11-2018 18 (13:30) 7.9 (00:00) 13 4.17 (14:30) 2.22 (06:30) 0 0 0 0 0
01-11-2018 18.1 (17:20) 5.7 (00:00) 11.9 4.44 (13:30) 2.5 (13:30) 0.1 0 0.1 0 0
31-10-2018 13.9 (13:30) 6.6 (00:00) 10.2 8.33 (13:40) 5 (13:40) 11.7 0 0 9.2 2.5
30-10-2018 15 (16:20) 8.5 (00:00) 11.8 14.17 (09:00) 9.44 (08:50) 40.5 8 29.9 2.6 0
29-10-2018 16.9 (15:50) 4.5 (00:00) 10.7 10 (14:50) 4.72 (13:40) 0.1 0 0.1 0 0
28-10-2018 15.2 (15:50) 6.3 (00:00) 10.8 9.44 (16:00) 5.28 (16:00) 1 0 0 1 0
27-10-2018 21.1 (15:20) 14.4 (00:00) 17.8 9.17 (17:00) 5.28 (21:50) 1.3 0.4 0.9 0 0
26-10-2018 19.2 (16:50) 15.5 (00:00) 17.4 5.28 (18:20) 3.33 (16:20) 4 0 1.3 2.6 0.1
25-10-2018 26.8 (15:40) 13.3 (00:00) 20 3.89 (16:10) 2.22 (03:00) 0 0 0 0 0
24-10-2018 26.2 (16:30) 13.6 (00:00) 19.9 5.28 (17:40) 3.61 (17:40) 0 0 0 0 0
23-10-2018 23.6 (17:10) 15.1 (00:00) 19.4 3.33 (00:30) 2.22 (00:30) 0 0 0 0 0
22-10-2018 25.5 (16:40) 14.3 (00:00) 19.9 4.72 (08:40) 2.5 (08:40) 0 0 0 0 0
21-10-2018 23 (18:10) 14.3 (00:00) 18.7 7.5 (14:40) 5 (14:40) 21.5 0 21 0.5 0
20-10-2018 17.5 (16:40) 13.9 (00:00) 15.7 7.22 (19:50) 5.28 (19:50) 17.2 0 1.4 2.4 13.4
19-10-2018 21.4 (17:10) 10.7 (00:00) 16 8.89 (17:20) 5 (17:20) 0 0 0 0 0
18-10-2018 17.8 (00:20) 12.9 (00:00) 15.3 17.5 (08:10) 5.56 (12:30) 19 0.2 15.8 3 0

Gráficas

Temp. máximas Temp. mínimas Temp. medias Precipitaciones Rachas de viento máximas Velocidades máximas media en intervalos de 10 minutos

Datos horarios

Fecha y hora oficial Temperatura (ºC) Velocidad del viento (km/h) Dirección del viento Racha (km/h) Dirección de racha Precipitación (mm) Presión (hPa) Tendencia (hPa) Humedad (%)
2018-11-16 23:00:00 12.8 5 Sudeste 7 Sudeste 0 -- -- 83
2018-11-16 22:00:00 13.8 3 Este 9 Este 0 -- -- 82
2018-11-16 21:00:00 14.8 0 Calma 9 Sudeste 0 -- -- 78
2018-11-16 20:00:00 15.5 5 Sudeste 6 Sudeste 0 -- -- 75
2018-11-16 19:00:00 17.3 3 Sudoeste 11 Oeste 0 -- -- 66
2018-11-16 18:00:00 20.3 0 Calma 6 Oeste 0 -- -- 49
2018-11-16 17:00:00 22.2 0 Calma 9 Oeste 0 -- -- 43
2018-11-16 16:00:00 21.4 3 Norte 12 Nordeste 0 -- -- 46
2018-11-16 15:00:00 20.5 6 Nordeste 13 Sudeste 0 -- -- 49
2018-11-16 14:00:00 20.3 8 Sudeste 14 Este 0 -- -- 47
2018-11-16 13:00:00 20.9 5 Sudoeste 11 Sudeste 0 -- -- 48
2018-11-16 12:00:00 19.4 3 Nordeste 10 Este 0 -- -- 58
2018-11-16 11:00:00 17.7 5 Este 9 Sudeste 0 -- -- 70
2018-11-16 10:00:00 14.6 2 Sur 9 Sudeste 0 -- -- 82
2018-11-16 09:00:00 11.9 4 Sur 13 Sudeste 0 -- -- 86
2018-11-16 08:00:00 12.1 5 Sur 14 Este 0 -- -- 86
2018-11-16 07:00:00 12.6 8 Este 12 Este 0 -- -- 91
2018-11-16 06:00:00 10.1 3 Sur 8 Sudoeste 0 -- -- 91
2018-11-16 05:00:00 10.8 0 Calma 5 Este 0 -- -- 91
2018-11-16 04:00:00 11.1 3 Nordeste 6 Sudeste 0 -- -- 91
2018-11-16 03:00:00 10.9 2 Sur 5 Nordeste 0 -- -- 89
2018-11-16 02:00:00 12.2 0 Calma 6 Este 0 -- -- 89
2018-11-16 01:00:00 12.6 4 Nordeste 6 Norte 0 -- -- 88
2018-11-16 00:00:00 13.2 0 Calma 5 Este 0 -- -- 87
2018-11-15 23:00:00 13.6 4 Nordeste 6 Este 0 -- -- 86
2018-11-15 22:00:00 14.4 0 Calma 9 Sudeste 0 -- -- 81
2018-11-15 21:00:00 15.6 8 Sudeste 11 Sudeste 0 -- -- 79
2018-11-15 20:00:00 15.5 4 Sudeste 8 Sudeste 0 -- -- 81
2018-11-15 19:00:00 17.4 0 Calma 2 Sur 0 -- -- 68
2018-11-15 18:00:00 19.4 0 Calma 6 Noroeste 0 -- -- 59
2018-11-15 17:00:00 20.2 0 Calma 9 Norte 0 -- -- 53
2018-11-15 16:00:00 20.3 0 Calma 13 Norte 0 -- -- 51
2018-11-15 15:00:00 20.8 6 Norte 14 Norte 0 -- -- 52
2018-11-15 14:00:00 19.9 6 Norte 13 Norte 0 -- -- 56
2018-11-15 13:00:00 18.9 4 Nordeste 8 Nordeste 0 -- -- 61
2018-11-15 12:00:00 17.5 4 Este 8 Este 0 -- -- 70
2018-11-15 11:00:00 15.1 4 Norte 7 Nordeste 0 -- -- 79
2018-11-15 10:00:00 14.2 0 Calma 7 Oeste 0 -- -- 80
2018-11-15 09:00:00 12.7 6 Este 12 Sudoeste 0 -- -- 87
2018-11-15 08:00:00 11.8 5 Sur 11 Este 0 -- -- 86
2018-11-15 07:00:00 12 3 Sudeste 6 Este 0 -- -- 85
2018-11-15 06:00:00 13.3 6 Este 11 Este 0 -- -- 84
2018-11-15 05:00:00 12.9 4 Sudeste 13 Este 0 -- -- 79
2018-11-15 04:00:00 15.6 9 Este 18 Sudeste 0 -- -- 70
2018-11-15 03:00:00 15.9 13 Este 22 Este 0 -- -- 70
2018-11-15 02:00:00 14.9 12 Este 19 Este 0 -- -- 75
2018-11-15 01:00:00 14.3 9 Este 15 Este 0 -- -- 76
2018-11-15 00:00:00 15.1 7 Este 13 Este 0 -- -- 71
2018-11-14 23:00:00 16 9 Este 12 Este 0 -- -- 67
2018-11-14 22:00:00 17.1 6 Este 13 Este 0 -- -- 60
2018-11-14 21:00:00 18.1 8 Sudeste 19 Sudeste 0 -- -- 56
2018-11-14 20:00:00 17.8 8 Sudeste 14 Este 0 -- -- 56
2018-11-14 19:00:00 18.5 6 Sudeste 12 Este 0 -- -- 54
2018-11-14 18:00:00 19.8 7 Sudeste 23 Sudeste 0 -- -- 49
2018-11-14 17:00:00 21.3 15 Sudeste 30 Sudeste 0 -- -- 45
2018-11-14 16:00:00 22.3 11 Sudeste 21 Sudeste 0 -- -- 45
2018-11-14 15:00:00 21.7 10 Sudeste 28 Sudeste 0 -- -- 47
2018-11-14 14:00:00 21.9 13 Este 27 Este 0 -- -- 47
2018-11-14 13:00:00 21.3 12 Este 19 Este 0 -- -- 55
2018-11-14 12:00:00 19 12 Este 21 Este 0 -- -- 62
2018-11-14 11:00:00 17.6 7 Este 14 Este 0 -- -- 71
2018-11-14 10:00:00 14.9 6 Nordeste 13 Este 0 -- -- 86
2018-11-14 09:00:00 13.8 6 Nordeste 10 Nordeste 0 -- -- 87
2018-11-14 08:00:00 14 6 Nordeste 14 Este 0 -- -- 86
2018-11-14 07:00:00 14.2 9 Este 18 Este 0 -- -- 86
2018-11-14 06:00:00 14.8 8 Este 13 Nordeste 0 -- -- 82
2018-11-14 05:00:00 16 7 Nordeste 14 Este 0 -- -- 70
2018-11-14 04:00:00 17.1 10 Este 19 Sudeste 0 -- -- 62
2018-11-14 03:00:00 17.8 7 Este 18 Sudeste 0 -- -- 60
2018-11-14 02:00:00 16.8 4 Sudeste 16 Sudeste 0 -- -- 66
2018-11-14 01:00:00 17.5 7 Sudeste 20 Sudeste 0 -- -- 62
2018-11-14 00:00:00 16.8 9 Sudeste 18 Sudeste 0 -- -- 69
2018-11-13 23:00:00 16.7 11 Este 21 Este 0 -- -- 74
2018-11-13 22:00:00 15.7 3 Este 9 Este 0 -- -- 83
2018-11-13 21:00:00 16 0 Calma 6 Este 0 -- -- 83
2018-11-13 20:00:00 16.2 0 Calma 6 Sur 0 -- -- 82
2018-11-13 19:00:00 17.1 0 Calma 6 Sudeste 0 -- -- 78
2018-11-13 18:00:00 18.5 0 Calma 5 Sur 0 -- -- 66
2018-11-13 17:00:00 19.4 2 Sudoeste 8 Norte 0 -- -- 59
2018-11-13 16:00:00 19.5 3 Norte 6 Norte 0 -- -- 57
2018-11-13 15:00:00 19 3 Nordeste 8 Nordeste 0 -- -- 56
2018-11-13 14:00:00 18.8 2 Oeste 7 Oeste 0 -- -- 57
2018-11-13 13:00:00 17.2 3 Este 11 Nordeste 0 -- -- 74
2018-11-13 12:00:00 15.3 5 Nordeste 10 Este 0 -- -- 80
2018-11-13 11:00:00 14.3 9 Nordeste 15 Este 0 -- -- 84
2018-11-13 10:00:00 13.6 4 Este 14 Norte 0 -- -- 89
2018-11-13 09:00:00 12.3 8 Nordeste 14 Norte 0 -- -- 91
2018-11-13 08:00:00 12.8 0 Calma 11 Nordeste 0 -- -- 90
2018-11-13 07:00:00 12.8 8 Nordeste 15 Nordeste 0 -- -- 90
2018-11-13 06:00:00 12.6 5 Este 10 Nordeste 0 -- -- 90
2018-11-13 05:00:00 12.8 6 Nordeste 9 Nordeste 0 -- -- 90
2018-11-13 04:00:00 13.2 4 Sudeste 11 Este 0 -- -- 90
2018-11-13 03:00:00 13.2 5 Este 8 Nordeste 0 -- -- 89
2018-11-13 02:00:00 13.9 0 Calma 6 Este 0 -- -- 87
2018-11-13 01:00:00 14.2 0 Calma 6 Norte 0 -- -- 85
2018-11-13 00:00:00 14.6 3 Sur 9 Sudoeste 0 -- -- 84
2018-11-12 23:00:00 14.7 0 Calma 11 Este 0 -- -- 84
2018-11-12 22:00:00 13.9 5 Sudeste 7 Sur 0 -- -- 89
2018-11-12 21:00:00 13.9 3 Sur 8 Sudoeste 0 -- -- 87
2018-11-12 20:00:00 14.5 0 Calma 6 Norte 0 -- -- 84
2018-11-12 19:00:00 14.8 4 Norte 13 Noroeste 0 -- -- 82
2018-11-12 18:00:00 15.7 3 Noroeste 17 Oeste 0 -- -- 80
2018-11-12 17:00:00 17.3 4 Noroeste 10 Norte 0 -- -- 70
2018-11-12 16:00:00 17.3 8 Este 13 Nordeste 0 -- -- 69
2018-11-12 15:00:00 17.5 0 Calma 5 Sur 0 -- -- 64
2018-11-12 14:00:00 17.3 4 Sur 14 Sudeste 0 -- -- 65
2018-11-12 13:00:00 16.6 8 Sur 17 Sur 0.1 -- -- 71
2018-11-12 12:00:00 15.5 13 Sur 19 Sur 0.1 -- -- 75
2018-11-12 11:00:00 14.8 10 Sur 24 Sudoeste 0 -- -- 81
2018-11-12 10:00:00 13.9 14 Sudoeste 26 Sur 0 -- -- 83
2018-11-12 09:00:00 13.4 10 Sudeste 14 Sudeste 5.1 -- -- 91
2018-11-12 08:00:00 13.6 5 Este 12 Este 2.5 -- -- 90
2018-11-12 07:00:00 13.5 0 Calma 10 Oeste 0.6 -- -- 90
2018-11-12 06:00:00 13.3 4 Este 8 Sudeste 2.6 -- -- 91
2018-11-12 05:00:00 13 0 Calma 9 Este 0 -- -- 91
2018-11-12 04:00:00 12.9 4 Este 8 Este 0 -- -- 91
2018-11-12 03:00:00 12.6 5 Este 10 Sudoeste 0 -- -- 92
2018-11-12 02:00:00 12.7 4 Sudoeste 13 Sur 0 -- -- 92
2018-11-12 01:00:00 12.9 8 Sur 12 Sur 0 -- -- 91
2018-11-12 00:00:00 13.5 4 Sur 10 Sudoeste 0 -- -- 90
2018-11-11 23:00:00 14.4 4 Sudoeste 12 Sudoeste 0 -- -- 90
2018-11-11 22:00:00 15.5 6 Sudoeste 14 Oeste 0 -- -- 86
2018-11-11 21:00:00 16 6 Sudoeste 15 Sudoeste 0 -- -- 84
2018-11-11 20:00:00 16.4 8 Sudoeste 17 Oeste 0 -- -- 82
2018-11-11 19:00:00 17.4 11 Oeste 22 Oeste 0 -- -- 79
2018-11-11 18:00:00 18.9 14 Oeste 27 Oeste 0 -- -- 70
2018-11-11 17:00:00 21.4 6 Oeste 17 Oeste 0 -- -- 53
2018-11-11 16:00:00 22.3 5 Oeste 11 Oeste 0 -- -- 52
2018-11-11 15:00:00 21.9 4 Oeste 13 Oeste 0 -- -- 53
2018-11-11 14:00:00 21.2 2 Noroeste 9 Sudoeste 0 -- -- 54
2018-11-11 13:00:00 20.9 4 Sudoeste 11 Sudoeste 0 -- -- 56
2018-11-11 12:00:00 20.2 4 Sudoeste 12 Sur 0 -- -- 61
2018-11-11 11:00:00 19 7 Sudoeste 12 Sudoeste 0 -- -- 69
2018-11-11 10:00:00 16.4 6 Sur 12 Sur 0 -- -- 86
2018-11-11 09:00:00 15.3 5 Sudeste 11 Sudeste 0 -- -- 91
2018-11-11 08:00:00 15.1 7 Sur 10 Sur 0.3 -- -- 90
2018-11-11 07:00:00 15.4 6 Sur 9 Sudoeste 0 -- -- 90
2018-11-11 06:00:00 15.1 3 Sudoeste 9 Sudoeste 0 -- -- 90
2018-11-11 05:00:00 14.8 5 Sur 10 Sur 0 -- -- 90
2018-11-11 04:00:00 14.4 5 Sur 11 Sur 0 -- -- 90
2018-11-11 03:00:00 14.8 5 Sur 17 Sudoeste 0 -- -- 88
2018-11-11 02:00:00 15.5 13 Sudoeste 18 Sudoeste 0 -- -- 86
2018-11-11 01:00:00 15.9 9 Sudoeste 16 Sudoeste 0 -- -- 85
2018-11-11 00:00:00 15.8 8 Sudoeste 15 Sudoeste 0 -- -- 85
2018-11-10 23:00:00 15.7 10 Sudoeste 14 Sudoeste 0 -- -- 85
2018-11-10 22:00:00 15.7 9 Sur 14 Sudoeste 0 -- -- 86
2018-11-10 21:00:00 15.8 11 Sudoeste 14 Sudoeste 0 -- -- 85
2018-11-10 20:00:00 16.2 9 Sudoeste 13 Sudoeste 0 -- -- 82
2018-11-10 19:00:00 16.4 9 Sudoeste 19 Sur 0 -- -- 80
2018-11-10 18:00:00 16.4 7 Sudoeste 14 Sudoeste 0 -- -- 81
2018-11-10 17:00:00 16.9 11 Sudoeste 21 Sudoeste 0 -- -- 78
2018-11-10 16:00:00 16.6 10 Sudoeste 18 Sudoeste 0 -- -- 83
2018-11-10 15:00:00 15.7 10 Sudoeste 20 Sudoeste 0.2 -- -- 85
2018-11-10 14:00:00 16.8 12 Sudoeste 18 Oeste 0 -- -- 73
2018-11-10 13:00:00 16.5 5 Oeste 19 Oeste 0 -- -- 72
2018-11-10 12:00:00 16.2 10 Sudoeste 17 Sudoeste 0 -- -- 70
2018-11-10 11:00:00 15.7 9 Sudoeste 13 Sudoeste 0 -- -- 73
2018-11-10 10:00:00 14.5 6 Sur 15 Sur 0 -- -- 79
2018-11-10 09:00:00 12.7 13 Sur 17 Sur 0 -- -- 83
2018-11-10 08:00:00 11.3 7 Sur 11 Sur 0 -- -- 88
2018-11-10 07:00:00 10.7 6 Sudoeste 10 Sudoeste 0 -- -- 90
2018-11-10 06:00:00 9.8 6 Sur 8 Sur 0 -- -- 89
2018-11-10 05:00:00 9.4 6 Sudoeste 8 Sudoeste 0 -- -- 89
2018-11-10 04:00:00 9.5 6 Sur 9 Sur 0 -- -- 87
2018-11-10 03:00:00 9.7 5 Sur 9 Sur 0 -- -- 87
2018-11-10 02:00:00 9.8 5 Sur 7 Sur 0 -- -- 87
2018-11-10 01:00:00 10.2 4 Sudoeste 10 Sur 0 -- -- 86
2018-11-10 00:00:00 10.6 6 Sur 10 Sur 0 -- -- 86
2018-11-09 23:00:00 10.7 5 Sudoeste 11 Sur 0 -- -- 85
2018-11-09 22:00:00 11.1 6 Sur 11 Sudoeste 0 -- -- 83
2018-11-09 21:00:00 12.2 7 Sudoeste 14 Sudoeste 0 -- -- 79
2018-11-09 20:00:00 12.8 9 Sudoeste 18 Sudoeste 0 -- -- 73
2018-11-09 19:00:00 13.9 12 Sudoeste 21 Oeste 0 -- -- 64
2018-11-09 18:00:00 15.7 5 Oeste 16 Oeste 0 -- -- 50
2018-11-09 17:00:00 16.7 9 Oeste 18 Sudoeste 0 -- -- 46
2018-11-09 16:00:00 17.2 6 Oeste 16 Oeste 0 -- -- 46
2018-11-09 15:00:00 16.2 4 Oeste 13 Oeste 0 -- -- 49
2018-11-09 14:00:00 16.6 3 Noroeste 13 Sudoeste 0 -- -- 48
2018-11-09 13:00:00 16.3 2 Noroeste 10 Oeste 0 -- -- 53
2018-11-09 12:00:00 15 5 Oeste 11 Oeste 0 -- -- 57
2018-11-09 11:00:00 13.6 6 Oeste 12 Sudoeste 0 -- -- 68
2018-11-09 10:00:00 12 6 Sudoeste 12 Sudoeste 0 -- -- 83
2018-11-09 09:00:00 8.6 6 Sur 11 Sur 0 -- -- 92
2018-11-09 08:00:00 7 5 Sudoeste 10 Sudoeste 0 -- -- 92
2018-11-09 07:00:00 7.2 5 Sudoeste 7 Sudoeste 0 -- -- 91
2018-11-09 06:00:00 7.7 4 Sur 9 Sudoeste 0 -- -- 91
2018-11-09 05:00:00 8.4 5 Sudoeste 12 Sudoeste 0 -- -- 89
2018-11-09 04:00:00 9.2 7 Sudoeste 10 Sudoeste 0 -- -- 88
2018-11-09 03:00:00 9.7 5 Sudoeste 11 Oeste 0 -- -- 85
2018-11-09 02:00:00 10.9 8 Oeste 13 Oeste 0 -- -- 81
2018-11-09 01:00:00 11.5 7 Oeste 11 Oeste 0 -- -- 80
2018-11-09 00:00:00 12.9 0 Calma 14 Oeste 0 -- -- 76
2018-11-08 23:00:00 13.5 0 Calma 20 Noroeste 0 -- -- 75
2018-11-08 22:00:00 14.6 9 Oeste 28 Oeste 0 -- -- 76
2018-11-08 21:00:00 14.7 15 Sudoeste 26 Sudoeste 0 -- -- 82
2018-11-08 20:00:00 14.7 13 Sudoeste 21 Sudoeste 0 -- -- 89
2018-11-08 19:00:00 15.1 12 Sudoeste 20 Sur 0 -- -- 88
2018-11-08 18:00:00 15.9 12 Sudoeste 23 Sudoeste 0 -- -- 85
2018-11-08 17:00:00 16.1 14 Sudoeste 25 Sudoeste 0.1 -- -- 89
2018-11-08 16:00:00 15.3 14 Sudoeste 28 Oeste 2.2 -- -- 91
2018-11-08 15:00:00 15.1 24 Sudoeste 41 Sudoeste 6.4 -- -- 89
2018-11-08 14:00:00 15.7 16 Sudoeste 30 Sudoeste 4.2 -- -- 84
2018-11-08 13:00:00 16 11 Sudoeste 21 Oeste 2.6 -- -- 91
2018-11-08 12:00:00 15.8 0 Calma 8 Norte 1.7 -- -- 91
2018-11-08 11:00:00 16 4 Norte 7 Norte 0.3 -- -- 91
2018-11-08 10:00:00 15.1 0 Calma 3 Sur 0.4 -- -- 92
2018-11-08 09:00:00 14.4 2 Sur 6 Sur 0.3 -- -- 92
2018-11-08 08:00:00 13.9 0 Calma 4 Sudeste 0.1 -- -- 92
2018-11-08 07:00:00 13.7 0 Calma 5 Sudeste 0 -- -- 92
2018-11-08 06:00:00 13.6 0 Calma 4 Sudeste 0 -- -- 92
2018-11-08 05:00:00 13.7 0 Calma 4 Sudeste 0.2 -- -- 92
2018-11-08 04:00:00 13.5 2 Sudeste 5 Sudeste 0 -- -- 93
2018-11-08 03:00:00 13.3 0 Calma 7 Este 0 -- -- 93
2018-11-08 02:00:00 13.2 4 Este 9 Nordeste 0 -- -- 93
2018-11-08 01:00:00 12.7 0 Calma -- -- 0 -- -- 92
2018-11-08 00:00:00 12.8 0 Calma 5 Sudeste 0 -- -- 92
2018-11-07 23:00:00 12.8 2 Sudoeste 4 Sudoeste 0 -- -- 91
2018-11-07 22:00:00 13.5 3 Sur 10 Sudoeste 0 -- -- 91
2018-11-07 21:00:00 14.5 6 Sudoeste 9 Sudoeste 0 -- -- 91
2018-11-07 20:00:00 14.6 5 Sudoeste 10 Sudoeste 0 -- -- 90
2018-11-07 19:00:00 15.4 5 Sudoeste 12 Sudoeste 0 -- -- 88
2018-11-07 18:00:00 16 9 Sudoeste 14 Sudoeste 0 -- -- 86
2018-11-07 17:00:00 16.3 7 Sudoeste 17 Oeste 0 -- -- 86
2018-11-07 16:00:00 15.8 10 Oeste 18 Oeste 0 -- -- 90
2018-11-07 15:00:00 15.3 8 Oeste 20 Oeste 0.5 -- -- 91
2018-11-07 14:00:00 15.4 0 Calma 30 Sudoeste 1.2 -- -- 91
2018-11-07 13:00:00 15.7 15 Sudoeste 41 Sudoeste 0.4 -- -- 89
2018-11-07 12:00:00 17.4 21 Sudoeste 41 Sudoeste 0 -- -- 69
2018-11-07 11:00:00 16.6 14 Sudoeste 31 Sudoeste 0 -- -- 71
2018-11-07 10:00:00 15.9 15 Sudoeste 27 Sudoeste 0 -- -- 73
2018-11-07 09:00:00 15.1 17 Sudoeste 27 Sudoeste 0 -- -- 75
2018-11-07 08:00:00 14.4 15 Sudoeste 22 Sudoeste 0 -- -- 75
2018-11-07 07:00:00 14.1 15 Sudoeste 23 Sudoeste 0 -- -- 75
2018-11-07 06:00:00 13.4 15 Sudoeste 21 Sudoeste 0 -- -- 78
2018-11-07 05:00:00 13.1 13 Sudoeste 24 Sudoeste 0 -- -- 76
2018-11-07 04:00:00 12.7 15 Sudoeste 20 Sudoeste 0 -- -- 77
2018-11-07 03:00:00 12.4 7 Sudoeste 11 Sudoeste 0 -- -- 82
2018-11-07 02:00:00 12 8 Sur 12 Sur 0 -- -- 82
2018-11-07 01:00:00 12.4 7 Sudoeste 10 Sudoeste 0 -- -- 83
2018-11-07 00:00:00 11.7 7 Sur 9 Sur 0 -- -- 86
2018-11-06 23:00:00 10.8 6 Sur 10 Sur 0 -- -- 84
2018-11-06 22:00:00 10.5 5 Sur 10 Sur 0 -- -- 83
2018-11-06 21:00:00 11.3 4 Sudoeste 9 Sudoeste 0 -- -- 79
2018-11-06 20:00:00 13.6 4 Oeste 12 Oeste 0 -- -- 66
2018-11-06 19:00:00 14.4 0 Calma 13 Sudoeste 0 -- -- 62
2018-11-06 18:00:00 16 8 Oeste 17 Oeste 0 -- -- 51
2018-11-06 17:00:00 16.9 8 Sudoeste 18 Oeste 0 -- -- 46
2018-11-06 16:00:00 16.8 2 Oeste 14 Sudoeste 0 -- -- 48
2018-11-06 15:00:00 17.3 8 Oeste 20 Oeste 0 -- -- 46
2018-11-06 14:00:00 16.8 9 Sudoeste 14 Sudoeste 0 -- -- 46
2018-11-06 13:00:00 16.8 5 Oeste 16 Sudoeste 0 -- -- 48
2018-11-06 12:00:00 15.3 6 Sudoeste 14 Oeste 0 -- -- 54
2018-11-06 11:00:00 14.4 6 Sudoeste 11 Sudoeste 0 -- -- 62
2018-11-06 10:00:00 11.9 6 Sur 10 Sudoeste 0 -- -- 79
2018-11-06 09:00:00 8.7 6 Sur 9 Sur 0 -- -- 90
2018-11-06 08:00:00 6.5 6 Sudoeste 10 Sur 0 -- -- 91
2018-11-06 07:00:00 6.6 5 Sur 9 Sudoeste 0 -- -- 89
2018-11-06 06:00:00 7.5 8 Sudoeste 13 Sudoeste 0 -- -- 87
2018-11-06 05:00:00 7.3 6 Sudoeste 10 Sudoeste 0 -- -- 87
2018-11-06 04:00:00 8.1 5 Sur 11 Sudoeste 0 -- -- 83
2018-11-06 03:00:00 9.3 8 Sudoeste 13 Sudoeste 0 -- -- 82
2018-11-06 02:00:00 8.8 6 Sudoeste 10 Sudoeste 0 -- -- 83
2018-11-06 01:00:00 9.3 8 Sudoeste 11 Sudoeste 0 -- -- 84
2018-11-06 00:00:00 9.7 6 Sudoeste 10 Sudoeste 0 -- -- 83
2018-11-05 23:00:00 11 6 Sudoeste 13 Oeste 0 -- -- 74
2018-11-05 22:00:00 11.8 9 Oeste 15 Sudoeste 0 -- -- 71
2018-11-05 21:00:00 12.1 9 Oeste 18 Sudoeste 0 -- -- 69
2018-11-05 20:00:00 13 9 Oeste 19 Oeste 0 -- -- 67
2018-11-05 19:00:00 13.2 12 Oeste 24 Oeste 0 -- -- 63
2018-11-05 18:00:00 14.3 13 Oeste 30 Oeste 0 -- -- 55
2018-11-05 17:00:00 15.2 20 Oeste 32 Oeste 0 -- -- 51
2018-11-05 16:00:00 16.4 5 Oeste 29 Oeste 0 -- -- 43
2018-11-05 15:00:00 16.5 11 Oeste 27 Oeste 0 -- -- 45
2018-11-05 14:00:00 17.4 4 Oeste 22 Noroeste 0 -- -- 43
2018-11-05 13:00:00 16.4 3 Noroeste 24 Oeste 0 -- -- 50
2018-11-05 12:00:00 15.5 4 Oeste 21 Oeste 0 -- -- 57
2018-11-05 11:00:00 14.3 6 Oeste 23 Oeste 0 -- -- 63
2018-11-05 10:00:00 13.4 9 Oeste 29 Oeste 0 -- -- 78
2018-11-05 09:00:00 11.6 11 Sudoeste 17 Sudoeste 0 -- -- 90
2018-11-05 08:00:00 11.6 10 Sudoeste 23 Sudoeste 0.1 -- -- 90
2018-11-05 07:00:00 12.2 13 Sudoeste 22 Oeste 0.3 -- -- 91
2018-11-05 06:00:00 12.7 12 Oeste 24 Oeste 1.7 -- -- 91
2018-11-05 05:00:00 13.3 2 Oeste 49 Sudoeste 7.3 -- -- 91
2018-11-05 04:00:00 14.4 30 Sudoeste 47 Sudoeste 0.1 -- -- 87
2018-11-05 03:00:00 14.5 22 Sudoeste 39 Sudoeste 0.3 -- -- 84
2018-11-05 02:00:00 14.9 17 Sudoeste 28 Sudoeste 0 -- -- 79
2018-11-05 01:00:00 15 17 Sudoeste 27 Sudoeste 0 -- -- 79
2018-11-05 00:00:00 14.4 13 Sudoeste 19 Sudoeste 0 -- -- 84
2018-11-04 23:00:00 14.4 11 Sudoeste 18 Sudoeste 0 -- -- 85
2018-11-04 22:00:00 14.5 10 Sudoeste 14 Sudoeste 0 -- -- 88
2018-11-04 21:00:00 14.9 8 Sudoeste 14 Sudoeste 0 -- -- 87
2018-11-04 20:00:00 15 8 Oeste 14 Oeste 0 -- -- 86
2018-11-04 19:00:00 15.2 4 Sudoeste 6 Sudoeste 0 -- -- 84
2018-11-04 18:00:00 15.3 2 Oeste 7 Oeste 0 -- -- 82
2018-11-04 17:00:00 15.6 0 Calma 15 Oeste 0 -- -- 80
2018-11-04 16:00:00 15.6 8 Sudoeste 17 Oeste 0 -- -- 79
2018-11-04 15:00:00 13.5 12 Oeste 26 Sudoeste 0 -- -- 88
2018-11-04 14:00:00 13.8 13 Oeste 21 Oeste 0 -- -- 90
2018-11-04 13:00:00 13.3 9 Oeste 17 Oeste 0 -- -- 93
2018-11-04 12:00:00 13 10 Oeste 18 Oeste 0 -- -- 92
2018-11-04 11:00:00 12.4 4 Sudoeste 9 Sudoeste 0 -- -- 92
2018-11-04 10:00:00 11 5 Sur 7 Sur 0 -- -- 91
2018-11-04 09:00:00 9.2 3 Sur 4 Sur 0 -- -- 88
2018-11-04 08:00:00 7.9 2 Sur 3 Sur 0 -- -- 87
2018-11-04 07:00:00 8.8 0 Calma 0 Calma 0 -- -- 87
2018-11-04 06:00:00 9.2 2 Sudeste 7 Sur 0 -- -- 86
2018-11-04 05:00:00 9.2 6 Sur 8 Sur 0 -- -- 87
2018-11-04 04:00:00 9.8 5 Sudeste 8 Sudeste 0 -- -- 88
2018-11-04 03:00:00 9.8 4 Sur 7 Sur 0 -- -- 88
2018-11-04 02:00:00 10 6 Sur 7 Sur 0 -- -- 88
2018-11-04 01:00:00 10.9 6 Sur 7 Sur 0 -- -- 88
2018-11-04 00:00:00 11.5 0 Calma 6 Sur 0 -- -- 86
2018-11-03 23:00:00 11.8 5 Sur 8 Sur 0 -- -- 86
2018-11-03 22:00:00 12.7 5 Sur 8 Sudeste 0 -- -- 87
2018-11-03 21:00:00 13.3 0 Calma 3 Sudoeste 0 -- -- 84
2018-11-03 20:00:00 14.9 0 Calma 4 Este 0 -- -- 75
2018-11-03 19:00:00 16.8 0 Calma 5 Este 0 -- -- 66
2018-11-03 18:00:00 18.1 4 Nordeste 12 Nordeste 0 -- -- 60
2018-11-03 17:00:00 19 8 Nordeste 14 Nordeste 0 -- -- 56
2018-11-03 16:00:00 18.8 10 Nordeste 18 Nordeste 0 -- -- 61
2018-11-03 15:00:00 18.4 9 Nordeste 18 Nordeste 0 -- -- 64
2018-11-03 14:00:00 17.7 13 Nordeste 19 Nordeste 0 -- -- 66
2018-11-03 13:00:00 16.8 13 Nordeste 19 Nordeste 0 -- -- 70
2018-11-03 12:00:00 15.8 14 Nordeste 21 Nordeste 0 -- -- 74
2018-11-03 11:00:00 16 13 Este 20 Nordeste 0 -- -- 76
2018-11-03 10:00:00 14.9 13 Nordeste 19 Este 0 -- -- 86
2018-11-03 09:00:00 13.1 7 Nordeste 10 Nordeste 0 -- -- 93
2018-11-03 08:00:00 10.8 4 Nordeste 9 Nordeste 0 -- -- 93
2018-11-03 07:00:00 10 0 Calma -- -- 0 -- -- 93
2018-11-03 06:00:00 10.1 0 Calma -- -- 0 -- -- 92
2018-11-03 05:00:00 10.4 0 Calma 6 Sudoeste 0 -- -- 92
2018-11-03 04:00:00 10.5 2 Sur 8 Nordeste 0 -- -- 92
2018-11-03 03:00:00 11.6 4 Nordeste 6 Nordeste 0 -- -- 91
2018-11-03 02:00:00 11.9 0 Calma -- -- 0 -- -- 91
2018-11-03 01:00:00 12.7 3 Sudeste 8 Sur 0 -- -- 91
2018-11-03 00:00:00 12.6 5 Sur 8 Sur 0 -- -- 90
2018-11-02 23:00:00 13.3 6 Sur 9 Sur 0 -- -- 90
2018-11-02 22:00:00 13.8 6 Sur 8 Sur 0 -- -- 89
2018-11-02 21:00:00 14.1 6 Sur 10 Sudoeste 0 -- -- 86
2018-11-02 20:00:00 14.9 5 Sur 10 Sudoeste 0 -- -- 82
2018-11-02 19:00:00 16.4 6 Sudoeste 11 Sudoeste 0 -- -- 75
2018-11-02 18:00:00 17.1 5 Sudoeste 14 Sudoeste 0 -- -- 69
2018-11-02 17:00:00 17.1 6 Sudoeste 13 Oeste 0 -- -- 66
2018-11-02 16:00:00 17.6 5 Oeste 12 Oeste 0 -- -- 64
2018-11-02 15:00:00 16.9 4 Oeste 15 Oeste 0 -- -- 63
2018-11-02 14:00:00 17.1 5 Oeste 12 Sur 0 -- -- 60
2018-11-02 13:00:00 17.8 5 Sur 12 Sudoeste 0 -- -- 59
2018-11-02 12:00:00 15.8 5 Sur 9 Sudoeste 0 -- -- 66
2018-11-02 11:00:00 14.1 5 Sudoeste 8 Sudoeste 0 -- -- 72
2018-11-02 10:00:00 12.6 5 Sudoeste 8 Sudoeste 0 -- -- 78
2018-11-02 09:00:00 9.7 3 Sudoeste 6 Sur 0 -- -- 90
2018-11-02 08:00:00 8.1 4 Sur 7 Sur 0 -- -- 91
2018-11-02 07:00:00 8.2 5 Sur 9 Sudoeste 0 -- -- 91
2018-11-02 06:00:00 8 6 Sur 8 Sur 0 -- -- 91
2018-11-02 05:00:00 8.2 6 Sur 8 Sur 0 -- -- 90
2018-11-02 04:00:00 8.6 6 Sudoeste 9 Sudoeste 0 -- -- 90
2018-11-02 03:00:00 8.8 6 Sur 9 Sur 0 -- -- 90
2018-11-02 02:00:00 9.2 6 Sur 9 Sur 0 -- -- 90
2018-11-02 01:00:00 9.4 5 Sur 8 Sudoeste 0 -- -- 89
2018-11-02 00:00:00 10 5 Sur 10 Sudoeste 0 -- -- 87
2018-11-01 23:00:00 10.6 7 Sur 9 Sudoeste 0 -- -- 86
2018-11-01 22:00:00 11.5 5 Sur 11 Sudoeste 0 -- -- 83
2018-11-01 21:00:00 12.8 8 Sudoeste 16 Sudoeste 0 -- -- 77
2018-11-01 20:00:00 14 6 Sudoeste 10 Oeste 0 -- -- 70
2018-11-01 19:00:00 14.5 7 Sudoeste 9 Sudoeste 0 -- -- 63
2018-11-01 18:00:00 16.5 3 Oeste 10 Oeste 0 -- -- 49
2018-11-01 17:00:00 17.7 3 Noroeste 12 Norte 0 -- -- 41
2018-11-01 16:00:00 16.7 6 Norte 14 Norte 0 -- -- 47
2018-11-01 15:00:00 16.4 3 Norte 12 Nordeste 0 -- -- 52
2018-11-01 14:00:00 15.6 4 Norte 16 Norte 0 -- -- 53
2018-11-01 13:00:00 15.1 7 Nordeste 12 Nordeste 0 -- -- 56
2018-11-01 12:00:00 13.7 4 Norte 8 Nordeste 0 -- -- 66
2018-11-01 11:00:00 12.6 2 Este 5 Nordeste 0 -- -- 73
2018-11-01 10:00:00 10.7 3 Sur 7 Sur 0 -- -- 93
2018-11-01 09:00:00 8.8 2 Sur 7 Sur 0 -- -- 94
2018-11-01 08:00:00 5.7 4 Sur 6 Sur 0 -- -- 94
2018-11-01 07:00:00 5.9 5 Sur 7 Sur 0.1 -- -- 93
2018-11-01 06:00:00 6.6 3 Sur 9 Sudeste 0 -- -- 93
2018-11-01 05:00:00 7.6 0 Calma 3 Norte 0 -- -- 92
2018-11-01 04:00:00 7.9 0 Calma 5 Nordeste 0 -- -- 92
2018-11-01 03:00:00 8.9 4 Nordeste 9 Nordeste 0 -- -- 91
2018-11-01 02:00:00 9.7 6 Nordeste 10 Nordeste 0 -- -- 91
2018-11-01 01:00:00 10.5 6 Nordeste 10 Nordeste 0 -- -- 91
2018-11-01 00:00:00 10.8 4 Nordeste 14 Este 0 -- -- 90
2018-10-31 23:00:00 10.7 9 Este 18 Este 0 -- -- 90
2018-10-31 22:00:00 10.7 10 Nordeste 17 Nordeste 0 -- -- 91
2018-10-31 21:00:00 10.8 9 Nordeste 17 Nordeste 0.8 -- -- 91
2018-10-31 20:00:00 11.2 9 Norte 19 Sudeste 0.1 -- -- 89
2018-10-31 19:00:00 11 9 Este 24 Sudeste 1.6 -- -- 89
2018-10-31 18:00:00 10.7 12 Este 21 Este 4.7 -- -- 89
2018-10-31 17:00:00 11.2 4 Este 17 Sudoeste 2.8 -- -- 84
2018-10-31 16:00:00 11.1 12 Sur 24 Sudoeste 1.1 -- -- 83
2018-10-31 15:00:00 11.7 13 Sudoeste 28 Sudoeste 0.6 -- -- 74
2018-10-31 14:00:00 12.9 14 Sudoeste 30 Sudoeste 0 -- -- 64
2018-10-31 13:00:00 13.6 17 Oeste 28 Sudoeste 0 -- -- 62
2018-10-31 12:00:00 12.7 13 Sudoeste 21 Oeste 0 -- -- 67
2018-10-31 11:00:00 12.2 11 Sudoeste 19 Oeste 0 -- -- 68
2018-10-31 10:00:00 11.4 10 Sudoeste 16 Sur 0 -- -- 72
2018-10-31 09:00:00 10 9 Sudoeste 15 Sudoeste 0 -- -- 81
2018-10-31 08:00:00 6.6 8 Sudoeste 10 Sudoeste 0 -- -- 86
2018-10-31 07:00:00 7 6 Sudoeste 14 Sudoeste 0 -- -- 83
2018-10-31 06:00:00 7.5 9 Sudoeste 22 Oeste 0 -- -- 82
2018-10-31 05:00:00 8.1 15 Oeste 23 Oeste 0 -- -- 79
2018-10-31 04:00:00 8 10 Oeste 17 Oeste 0 -- -- 80
2018-10-31 03:00:00 8.1 12 Oeste 22 Sudoeste 0 -- -- 79
2018-10-31 02:00:00 8.6 12 Oeste 22 Oeste 0 -- -- 78
2018-10-31 01:00:00 9 12 Oeste 22 Sudoeste 0 -- -- 76
2018-10-31 00:00:00 8.9 12 Oeste 22 Oeste 0 -- -- 77
2018-10-30 23:00:00 9.1 15 Oeste 29 Sudoeste 0 -- -- 77
2018-10-30 22:00:00 9.5 14 Oeste 26 Oeste 0 -- -- 77
2018-10-30 21:00:00 10.3 13 Oeste 23 Sudoeste 0 -- -- 75
2018-10-30 20:00:00 10.8 12 Oeste 19 Noroeste 0 -- -- 74
2018-10-30 19:00:00 12.3 0 Calma 21 Oeste 0 -- -- 67
2018-10-30 18:00:00 13.9 4 Oeste 31 Oeste 0.4 -- -- 64
2018-10-30 17:00:00 14.7 13 Sudoeste 23 Oeste 0 -- -- 71
2018-10-30 16:00:00 14.7 9 Oeste 25 Sudoeste 0 -- -- 76
2018-10-30 15:00:00 13.4 18 Sudoeste 42 Sur 0.9 -- -- 87
2018-10-30 14:00:00 13.2 29 Sudoeste 49 Sudoeste 0.3 -- -- 83
2018-10-30 13:00:00 13.2 24 Sur 37 Sur 1 -- -- 86
2018-10-30 12:00:00 12.6 25 Sur 38 Sur 3 -- -- 91
2018-10-30 11:00:00 11.9 12 Sudoeste 27 Noroeste 17.3 -- -- 91
2018-10-30 10:00:00 12.8 10 Oeste 45 Sudoeste 7 -- -- 90
2018-10-30 09:00:00 13.7 31 Sudoeste 51 Sudoeste 0.3 -- -- 85
2018-10-30 08:00:00 13.2 23 Sudoeste 39 Sudoeste 0.2 -- -- 87
2018-10-30 07:00:00 12.5 17 Sudoeste 29 Sudoeste 2.1 -- -- 91
2018-10-30 06:00:00 11.5 14 Sudoeste 19 Sudoeste 6 -- -- 91
2018-10-30 05:00:00 11.2 14 Sudoeste 24 Sudoeste 1.1 -- -- 90
2018-10-30 04:00:00 11.2 12 Sudoeste 20 Sudoeste 0.9 -- -- 87
2018-10-30 03:00:00 11.1 10 Sudoeste 18 Sudoeste 0 -- -- 75
2018-10-30 02:00:00 10.6 10 Sudoeste 15 Sudoeste 0 -- -- 67
2018-10-30 01:00:00 10 9 Sudoeste 14 Sudoeste 0 -- -- 69
2018-10-30 00:00:00 8.7 7 Sudoeste 14 Sudoeste 0 -- -- 67
2018-10-29 23:00:00 10.6 8 Sudoeste 18 Oeste 0 -- -- 56
2018-10-29 22:00:00 11.1 11 Oeste 21 Oeste 0 -- -- 54
2018-10-29 21:00:00 10.7 9 Sudoeste 19 Sudoeste 0 -- -- 56
2018-10-29 20:00:00 11.5 11 Oeste 19 Sudoeste 0 -- -- 51
2018-10-29 19:00:00 13.1 7 Oeste 20 Noroeste 0 -- -- 43
2018-10-29 18:00:00 14.7 0 Calma 19 Noroeste 0 -- -- 36
2018-10-29 17:00:00 16.4 2 Noroeste 27 Noroeste 0 -- -- 32
2018-10-29 16:00:00 15.9 14 Oeste 30 Oeste 0 -- -- 31
2018-10-29 15:00:00 16 4 Oeste 36 Oeste 0 -- -- 37
2018-10-29 14:00:00 14.9 12 Oeste 30 Oeste 0 -- -- 40
2018-10-29 13:00:00 13.9 10 Oeste 27 Oeste 0 -- -- 44
2018-10-29 12:00:00 12.4 7 Oeste 22 Oeste 0 -- -- 49
2018-10-29 11:00:00 10.2 13 Sudoeste 22 Sudoeste 0.1 -- -- 68
2018-10-29 10:00:00 8.6 10 Sudoeste 17 Sudoeste 0 -- -- 74
2018-10-29 09:00:00 7.2 9 Sudoeste 15 Sudoeste 0 -- -- 82
2018-10-29 08:00:00 5.1 9 Sudoeste 14 Sudoeste 0 -- -- 87
2018-10-29 07:00:00 4.7 8 Sudoeste 13 Sudoeste 0 -- -- 87
2018-10-29 06:00:00 4.6 8 Sudoeste 12 Sudoeste 0 -- -- 85
2018-10-29 05:00:00 4.9 6 Sudoeste 14 Sudoeste 0 -- -- 82
2018-10-29 04:00:00 5.4 8 Sudoeste 10 Sudoeste 0 -- -- 80
2018-10-29 03:00:00 6.7 2 Oeste 10 Sudoeste 0 -- -- 74
2018-10-29 02:00:00 7.6 0 Calma 8 Oeste 0 -- -- 71
2018-10-29 01:00:00 7.6 3 Oeste 8 Oeste 0 -- -- 72
2018-10-29 00:00:00 7 3 Oeste 11 Noroeste 0 -- -- 75
2018-10-28 23:00:00 6.4 4 Sudoeste 7 Sur 0 -- -- 82
2018-10-28 22:00:00 7.8 0 Calma 7 Sur 0 -- -- 76
2018-10-28 21:00:00 9.2 4 Sudoeste 9 Sudoeste 0 -- -- 66
2018-10-28 20:00:00 9.4 5 Sudoeste 9 Sudoeste 0 -- -- 73
2018-10-28 19:00:00 10.1 3 Sur 12 Sudeste 0 -- -- 71
2018-10-28 18:00:00 11.3 6 Sudeste 13 Sudeste 0 -- -- 66
2018-10-28 17:00:00 10.9 6 Sudeste 25 Este 0.9 -- -- 65
2018-10-28 16:00:00 12.8 19 Nordeste 34 Nordeste 0.1 -- -- 41
2018-10-28 15:00:00 13.3 8 Norte 22 Norte 0 -- -- 46
2018-10-28 14:00:00 13.2 10 Norte 19 Norte 0 -- -- 42
2018-10-28 13:00:00 13.4 9 Nordeste 21 Norte 0 -- -- 45
2018-10-28 12:00:00 11.8 9 Norte 19 Norte 0 -- -- 49
2018-10-28 11:00:00 10.9 9 Norte 17 Noroeste 0 -- -- 53
2018-10-28 10:00:00 10.8 11 Norte 18 Nordeste 0 -- -- 56
2018-10-28 09:00:00 9.1 5 Norte 9 Norte 0 -- -- 80
2018-10-28 08:00:00 7.6 2 Oeste 9 Oeste 0 -- -- 82
2018-10-28 07:00:00 8.2 0 Calma 7 Oeste 0 -- -- 78
2018-10-28 06:00:00 9.1 5 Oeste 14 Oeste 0 -- -- 74
2018-10-28 05:00:00 9.3 9 Oeste 14 Oeste 0 -- -- 71
2018-10-28 04:00:00 10.1 2 Noroeste 11 Noroeste 0 -- -- 65
2018-10-28 03:00:00 11.1 4 Noroeste 14 Oeste 0 -- -- 58
2018-10-28 02:00:00 11.9 6 Noroeste 15 Oeste 0 -- -- 55
2018-10-28 01:00:00 13.6 12 Norte 25 Norte 0 -- -- 47
2018-10-28 00:00:00 14.4 13 Norte 22 Noroeste 0 -- -- 46
2018-10-27 23:00:00 15.4 4 Noroeste 19 Norte 0 -- -- 42
2018-10-27 22:00:00 16.3 15 Norte 31 Norte 0 -- -- 41
2018-10-27 21:00:00 16.1 4 Oeste 18 Oeste 0 -- -- 62
2018-10-27 20:00:00 16.2 10 Oeste 21 Oeste 0 -- -- 58
2018-10-27 19:00:00 18.1 5 Oeste 18 Norte 0 -- -- 48
2018-10-27 18:00:00 19 7 Oeste 22 Oeste 0 -- -- 50
2018-10-27 17:00:00 18.8 15 Oeste 33 Oeste 0 -- -- 58
2018-10-27 16:00:00 20.8 2 Noroeste 27 Oeste 0 -- -- 61
2018-10-27 15:00:00 20.3 8 Oeste 29 Oeste 0 -- -- 64
2018-10-27 14:00:00 20.1 17 Oeste 28 Oeste 0 -- -- 62
2018-10-27 13:00:00 19.1 12 Sudoeste 23 Sudoeste 0 -- -- 73
2018-10-27 12:00:00 17.8 12 Sudoeste 20 Sudoeste 0 -- -- 80
2018-10-27 11:00:00 15.9 7 Sudoeste 14 Sudoeste 0 -- -- 92
2018-10-27 10:00:00 15.3 5 Sudoeste 9 Sudoeste 0.1 -- -- 92
2018-10-27 09:00:00 15.2 6 Sudoeste 9 Sudoeste 0 -- -- 92
2018-10-27 08:00:00 15.4 3 Sur 9 Sur 0.2 -- -- 92
2018-10-27 07:00:00 15.2 0 Calma 4 Sur 0.6 -- -- 92
2018-10-27 06:00:00 15.2 0 Calma 6 Sur 0.4 -- -- 92
2018-10-27 05:00:00 15 2 Oeste 7 Sudoeste 0 -- -- 92
2018-10-27 04:00:00 14.8 0 Calma 5 Sudoeste 0 -- -- 92
2018-10-27 03:00:00 14.9 0 Calma -- -- 0 -- -- 92
2018-10-27 02:00:00 15.3 0 Calma 8 Norte 0 -- -- 92
2018-10-27 01:00:00 15.4 4 Nordeste 6 Nordeste 0 -- -- 91
2018-10-27 00:00:00 15.5 4 Norte 10 Norte 0 -- -- 91
2018-10-26 23:00:00 15.7 0 Calma 6 Sudeste 0 -- -- 91
2018-10-26 22:00:00 15.8 4 Este 8 Este 0 -- -- 91
2018-10-26 21:00:00 16.1 6 Nordeste 16 Nordeste 0 -- -- 91
2018-10-26 20:00:00 16.4 8 Norte 16 Norte 0 -- -- 91
2018-10-26 19:00:00 17.3 10 Nordeste 19 Norte 0.1 -- -- 87
2018-10-26 18:00:00 18.3 8 Norte 15 Nordeste 1.1 -- -- 84
2018-10-26 17:00:00 18.8 11 Este 19 Este 0.1 -- -- 76
2018-10-26 16:00:00 18.4 10 Este 17 Este 0 -- -- 79
2018-10-26 15:00:00 18.3 10 Este 16 Este 0 -- -- 82
2018-10-26 14:00:00 17.2 5 Este 13 Sudeste 0 -- -- 83
2018-10-26 13:00:00 17 8 Sudeste 13 Sudeste 1.4 -- -- 86
2018-10-26 12:00:00 17 0 Calma 10 Este 0.5 -- -- 83
2018-10-26 11:00:00 16.7 4 Sudeste 8 Sudeste 0 -- -- 88
2018-10-26 10:00:00 16.4 4 Este 8 Este 0.2 -- -- 90
2018-10-26 09:00:00 16.3 4 Sudoeste 6 Sudoeste 0.5 -- -- 88
2018-10-26 08:00:00 16.6 4 Oeste 9 Oeste 0.1 -- -- 87
2018-10-26 07:00:00 16.4 0 Calma 7 Nordeste 0 -- -- 84
2018-10-26 06:00:00 16.5 2 Norte 8 Nordeste 0 -- -- 83
2018-10-26 05:00:00 16.4 4 Sur 8 Sur 0 -- -- 81
2018-10-26 04:00:00 15.8 5 Sur 8 Sur 0 -- -- 82
2018-10-26 03:00:00 15.7 6 Sur 7 Sur 0 -- -- 81
2018-10-26 02:00:00 15.9 6 Sur 7 Sur 0 -- -- 80
2018-10-26 01:00:00 16.4 4 Sur 7 Sur 0 -- -- 81
2018-10-26 00:00:00 16.6 4 Sur 6 Sudoeste 0 -- -- 79
2018-10-25 23:00:00 17.5 3 Sur 9 Sudoeste 0 -- -- 74
2018-10-25 22:00:00 18 7 Sudoeste 10 Sudoeste 0 -- -- 71
2018-10-25 21:00:00 19.7 3 Sur 5 Sudeste 0 -- -- 60
2018-10-25 20:00:00 22.3 0 Calma 4 Noroeste 0 -- -- 45
2018-10-25 19:00:00 24.6 0 Calma 5 Oeste 0 -- -- 38
2018-10-25 18:00:00 25.8 0 Calma 10 Sudoeste 0 -- -- 32
2018-10-25 17:00:00 25.4 5 Oeste 14 Oeste 0 -- -- 32
2018-10-25 16:00:00 26.2 0 Calma 10 Sudoeste 0 -- -- 31
2018-10-25 15:00:00 25.6 3 Noroeste 10 Oeste 0 -- -- 37
2018-10-25 14:00:00 24.7 0 Calma 6 Nordeste 0 -- -- 44
2018-10-25 13:00:00 23.1 0 Calma 11 Norte 0 -- -- 53
2018-10-25 12:00:00 20.6 3 Este 8 Nordeste 0 -- -- 64
2018-10-25 11:00:00 17.9 4 Nordeste 8 Nordeste 0 -- -- 78
2018-10-25 10:00:00 15.6 0 Calma -- -- 0 -- -- 87
2018-10-25 09:00:00 13.5 0 Calma 4 Sudeste 0 -- -- 89
2018-10-25 08:00:00 13.5 2 Sudeste 6 Sudeste 0 -- -- 89
2018-10-25 07:00:00 13.6 3 Sudeste 6 Sudeste 0 -- -- 89
2018-10-25 06:00:00 14.2 5 Este 6 Este 0 -- -- 87
2018-10-25 05:00:00 14.5 4 Sur 8 Sur 0 -- -- 86
2018-10-25 04:00:00 14.8 4 Sur 10 Sur 0 -- -- 83
2018-10-25 03:00:00 15.2 8 Sur 10 Sur 0 -- -- 83
2018-10-25 02:00:00 15.6 5 Sudoeste 8 Sudoeste 0 -- -- 82
2018-10-25 01:00:00 15.7 0 Calma 6 Sur 0 -- -- 83
2018-10-25 00:00:00 16.4 3 Sur 6 Sur 0 -- -- 82
2018-10-24 23:00:00 17.6 0 Calma 8 Sur 0 -- -- 77
2018-10-24 22:00:00 18.2 6 Sur 9 Sur 0 -- -- 73
2018-10-24 21:00:00 20.5 5 Este 8 Este 0 -- -- 62
2018-10-24 20:00:00 22.1 4 Nordeste 10 Nordeste 0 -- -- 54
2018-10-24 19:00:00 24.1 8 Nordeste 17 Nordeste 0 -- -- 44
2018-10-24 18:00:00 25.3 12 Nordeste 19 Nordeste 0 -- -- 38
2018-10-24 17:00:00 25.9 9 Nordeste 17 Norte 0 -- -- 39
2018-10-24 16:00:00 25.7 5 Nordeste 16 Nordeste 0 -- -- 41
2018-10-24 15:00:00 25.3 5 Nordeste 15 Nordeste 0 -- -- 43
2018-10-24 14:00:00 23.9 6 Nordeste 16 Nordeste 0 -- -- 47
2018-10-24 13:00:00 23.1 5 Nordeste 13 Este 0 -- -- 51
2018-10-24 12:00:00 21.5 2 Este 5 Nordeste 0 -- -- 57
2018-10-24 11:00:00 19.4 3 Este 5 Este 0 -- -- 65
2018-10-24 10:00:00 16.5 0 Calma 5 Este 0 -- -- 83
2018-10-24 09:00:00 13.7 3 Nordeste 5 Nordeste 0 -- -- 90
2018-10-24 08:00:00 14 3 Sur 7 Sur 0 -- -- 90
2018-10-24 07:00:00 14 4 Sur 5 Este 0 -- -- 90
2018-10-24 06:00:00 14.9 0 Calma 5 Nordeste 0 -- -- 90
2018-10-24 05:00:00 15 0 Calma 5 Sudoeste 0 -- -- 89
2018-10-24 04:00:00 15.9 5 Nordeste 7 Nordeste 0 -- -- 88
2018-10-24 03:00:00 16.5 0 Calma 6 Norte 0 -- -- 85
2018-10-24 02:00:00 17.3 0 Calma 6 Sudeste 0 -- -- 80
2018-10-24 01:00:00 17.6 0 Calma 5 Sudeste 0 -- -- 81
2018-10-24 00:00:00 17.6 0 Calma 5 Este 0 -- -- 86
2018-10-23 23:00:00 18.1 3 Sudeste 7 Sur 0 -- -- 85
2018-10-23 22:00:00 18.6 4 Sur 8 Sur 0 -- -- 85
2018-10-23 21:00:00 20.2 0 Calma 4 Sudoeste 0 -- -- 77
2018-10-23 20:00:00 21.4 3 Sudoeste 5 Sudoeste 0 -- -- 69
2018-10-23 19:00:00 22.8 0 Calma 5 Nordeste 0 -- -- 58
2018-10-23 18:00:00 23.6 3 Nordeste 9 Norte 0 -- -- 51
2018-10-23 17:00:00 23.4 3 Nordeste 6 Norte 0 -- -- 51
2018-10-23 16:00:00 23.1 3 Norte 7 Noroeste 0 -- -- 53
2018-10-23 15:00:00 22.9 3 Norte 8 Norte 0 -- -- 53
2018-10-23 14:00:00 22.5 2 Sudoeste 8 Sur 0 -- -- 60
2018-10-23 13:00:00 21 0 Calma 11 Sudoeste 0 -- -- 64
2018-10-23 12:00:00 19.5 6 Sudoeste 11 Sudoeste 0 -- -- 78
2018-10-23 11:00:00 17.5 0 Calma 6 Oeste 0 -- -- 89
2018-10-23 10:00:00 16.8 0 Calma 4 Sudoeste 0 -- -- 90
2018-10-23 09:00:00 15.3 0 Calma 4 Sudoeste 0 -- -- 90
2018-10-23 08:00:00 16.1 0 Calma 6 Nordeste 0 -- -- 90
2018-10-23 07:00:00 16.7 4 Norte 6 Norte 0 -- -- 88
2018-10-23 06:00:00 16.9 2 Sudoeste 9 Este 0 -- -- 87
2018-10-23 05:00:00 17.6 6 Este 11 Este 0 -- -- 90
2018-10-23 04:00:00 17.7 0 Calma 4 Norte 0 -- -- 89
2018-10-23 03:00:00 17.5 0 Calma 4 Sudoeste 0 -- -- 87
2018-10-23 02:00:00 18 0 Calma -- -- 0 -- -- 87
2018-10-23 01:00:00 18.3 0 Calma 12 Sudoeste 0 -- -- 86
2018-10-23 00:00:00 18.4 4 Sur 7 Sur 0 -- -- 86
2018-10-22 23:00:00 19 5 Sur 10 Sudeste 0 -- -- 85
2018-10-22 22:00:00 20.1 6 Sur 8 Sur 0 -- -- 78
2018-10-22 21:00:00 20.9 3 Sur 5 Sur 0 -- -- 71
2018-10-22 20:00:00 22.7 0 Calma 8 Nordeste 0 -- -- 58
2018-10-22 19:00:00 24 7 Nordeste 14 Nordeste 0 -- -- 51
2018-10-22 18:00:00 24.7 7 Norte 14 Norte 0 -- -- 49
2018-10-22 17:00:00 24.9 6 Norte 15 Nordeste 0 -- -- 49
2018-10-22 16:00:00 23.9 7 Nordeste 15 Nordeste 0 -- -- 56
2018-10-22 15:00:00 24.6 9 Nordeste 16 Nordeste 0 -- -- 56
2018-10-22 14:00:00 23.9 6 Nordeste 13 Nordeste 0 -- -- 59
2018-10-22 13:00:00 23.3 5 Nordeste 10 Este 0 -- -- 61
2018-10-22 12:00:00 21.9 5 Nordeste 11 Nordeste 0 -- -- 66
2018-10-22 11:00:00 20 0 Calma 6 Sudeste 0 -- -- 77
2018-10-22 10:00:00 17.5 4 Sudeste 11 Este 0 -- -- 89
2018-10-22 09:00:00 15.4 5 Este 17 Este 0 -- -- 91
2018-10-22 08:00:00 14.6 6 Este 8 Este 0 -- -- 91
2018-10-22 07:00:00 14.9 2 Este 8 Este 0 -- -- 91
2018-10-22 06:00:00 14.8 5 Este 9 Nordeste 0 -- -- 91
2018-10-22 05:00:00 15.4 6 Este 11 Este 0 -- -- 91
2018-10-22 04:00:00 15.4 0 Calma 7 Norte 0 -- -- 90
2018-10-22 03:00:00 15.7 0 Calma 8 Este 0 -- -- 89
2018-10-22 02:00:00 16 3 Nordeste 6 Nordeste 0 -- -- 89
2018-10-22 01:00:00 16.7 2 Este 8 Este 0 -- -- 88
2018-10-22 00:00:00 16.8 6 Este 10 Este 0 -- -- 86
2018-10-21 23:00:00 17.1 4 Este 5 Este 0 -- -- 84
2018-10-21 22:00:00 18 2 Nordeste 9 Nordeste 0 -- -- 80
2018-10-21 21:00:00 18.7 4 Nordeste 9 Nordeste 0 -- -- 74
2018-10-21 20:00:00 19.8 6 Nordeste 9 Nordeste 0 -- -- 69
2018-10-21 19:00:00 21.9 7 Este 11 Este 0 -- -- 56
2018-10-21 18:00:00 22.7 4 Sudeste 9 Sur 0 -- -- 56
2018-10-21 17:00:00 21.6 3 Sudoeste 14 Este 0 -- -- 61
2018-10-21 16:00:00 19.7 9 Sudeste 21 Sudeste 0 -- -- 67
2018-10-21 15:00:00 20.3 17 Sudeste 27 Sudeste 0 -- -- 67
2018-10-21 14:00:00 18.5 13 Sudeste 21 Sudeste 0 -- -- 78
2018-10-21 13:00:00 17.1 9 Este 17 Este 0.5 -- -- 90
2018-10-21 12:00:00 16.2 8 Este 20 Este 4.3 -- -- 90
2018-10-21 11:00:00 16.6 3 Sudoeste 10 Este 12 -- -- 90
2018-10-21 10:00:00 16.4 4 Sudeste 18 Este 4.6 -- -- 90
2018-10-21 09:00:00 15.2 3 Norte 11 Nordeste 0.1 -- -- 92
2018-10-21 08:00:00 14.8 0 Calma 5 Oeste 0 -- -- 92
2018-10-21 07:00:00 14.5 2 Sudoeste 6 Oeste 0 -- -- 92
2018-10-21 06:00:00 14.6 3 Nordeste 10 Nordeste 0 -- -- 92
2018-10-21 05:00:00 15.2 3 Norte 8 Norte 0 -- -- 92
2018-10-21 04:00:00 15.2 2 Norte 6 Norte 0 -- -- 92
2018-10-21 03:00:00 15.4 0 Calma 5 Oeste 0 -- -- 92
2018-10-21 02:00:00 15.6 0 Calma 6 Nordeste 0 -- -- 91
2018-10-21 01:00:00 15.5 4 Nordeste 10 Nordeste 0 -- -- 91
2018-10-21 00:00:00 15.4 4 Este 15 Este 0 -- -- 91
2018-10-20 23:00:00 15.6 7 Este 15 Sudeste 0 -- -- 91
2018-10-20 22:00:00 15.5 9 Este 19 Nordeste 0 -- -- 91
2018-10-20 21:00:00 15.6 16 Nordeste 26 Este 9 -- -- 92
2018-10-20 20:00:00 15.1 16 Nordeste 26 Nordeste 3.3 -- -- 92
2018-10-20 19:00:00 15.2 4 Norte 23 Norte 1.1 -- -- 91
2018-10-20 18:00:00 15.3 14 Norte 20 Norte 0.2 -- -- 90
2018-10-20 17:00:00 16.5 0 Calma 17 Nordeste 0 -- -- 85
2018-10-20 16:00:00 17 11 Norte 17 Norte 0.3 -- -- 84
2018-10-20 15:00:00 16.4 9 Nordeste 14 Este 0.5 -- -- 84
2018-10-20 14:00:00 16.3 9 Este 17 Nordeste 0.7 -- -- 82
2018-10-20 13:00:00 16.1 7 Este 13 Este 0.7 -- -- 77
2018-10-20 12:00:00 15.4 6 Este 19 Este 1.4 -- -- 79
2018-10-20 11:00:00 15.4 14 Este 23 Este 0 -- -- 73
2018-10-20 10:00:00 14.9 12 Este 22 Este 0 -- -- 76
2018-10-20 09:00:00 14 13 Nordeste 18 Nordeste 0 -- -- 79
2018-10-20 08:00:00 14.6 10 Nordeste 14 Nordeste 0 -- -- 75
2018-10-20 07:00:00 14.1 9 Nordeste 18 Nordeste 0 -- -- 77
2018-10-20 06:00:00 14.9 13 Nordeste 18 Nordeste 0 -- -- 71
2018-10-20 05:00:00 15.6 8 Este 14 Este 0 -- -- 69
2018-10-20 04:00:00 15.3 7 Nordeste 14 Este 0 -- -- 73
2018-10-20 03:00:00 15.6 9 Este 14 Sudeste 0 -- -- 71
2018-10-20 02:00:00 16.5 6 Sudeste 20 Sudeste 0 -- -- 69
2018-10-20 01:00:00 16.3 12 Sudeste 18 Este 0 -- -- 70
2018-10-20 00:00:00 15.6 10 Este 16 Nordeste 0 -- -- 72
2018-10-19 23:00:00 15.4 8 Este 20 Este 0 -- -- 67
2018-10-19 22:00:00 16.9 8 Sudeste 13 Sudeste 0 -- -- 59
2018-10-19 21:00:00 17.6 5 Este 10 Sur 0 -- -- 53
2018-10-19 20:00:00 18.6 8 Sudeste 17 Sudeste 0 -- -- 49
2018-10-19 19:00:00 19.7 9 Sudeste 23 Sudeste 0 -- -- 42
2018-10-19 18:00:00 20.6 12 Sudeste 32 Sudeste 0 -- -- 41
2018-10-19 17:00:00 20.9 14 Sudeste 25 Sudeste 0 -- -- 42
2018-10-19 16:00:00 20.5 15 Nordeste 24 Nordeste 0 -- -- 46
2018-10-19 15:00:00 20.9 13 Nordeste 23 Nordeste 0 -- -- 46
2018-10-19 14:00:00 19.3 15 Nordeste 24 Nordeste 0 -- -- 51
2018-10-19 13:00:00 18.9 14 Nordeste 22 Este 0 -- -- 47
2018-10-19 12:00:00 17.6 11 Este 20 Este 0 -- -- 53
2018-10-19 11:00:00 15.1 11 Este 19 Este 0 -- -- 68
2018-10-19 10:00:00 11.8 6 Este 11 Este 0 -- -- 87
2018-10-19 09:00:00 10.8 6 Nordeste 11 Nordeste 0 -- -- 92
2018-10-19 08:00:00 11.4 3 Este 7 Nordeste 0 -- -- 92
2018-10-19 07:00:00 11.5 4 Este 9 Este 0 -- -- 92
2018-10-19 06:00:00 12.2 5 Este 9 Este 0 -- -- 92
2018-10-19 05:00:00 12.4 6 Este 12 Nordeste 0 -- -- 91
2018-10-19 04:00:00 12.7 6 Este 9 Este 0 -- -- 91
2018-10-19 03:00:00 12.7 5 Nordeste 8 Nordeste 0 -- -- 90
2018-10-19 02:00:00 12.9 6 Este 11 Este 0 -- -- 89
2018-10-19 01:00:00 13.2 7 Nordeste 15 Nordeste 0 -- -- 89
2018-10-19 00:00:00 13.6 8 Nordeste 12 Nordeste 0 -- -- 90
2018-10-18 23:00:00 14 4 Este 6 Nordeste 0 -- -- 86
2018-10-18 22:00:00 14.1 3 Este 10 Sudeste 0 -- -- 84
2018-10-18 21:00:00 14.4 7 Este 14 Este 0 -- -- 82
2018-10-18 20:00:00 14.7 7 Este 17 Nordeste 0 -- -- 79
2018-10-18 19:00:00 15.4 12 Este 19 Este 0 -- -- 75
2018-10-18 18:00:00 16.1 12 Este 20 Este 0 -- -- 63
2018-10-18 17:00:00 15.8 14 Este 23 Este 0 -- -- 71
2018-10-18 16:00:00 16.1 11 Este 18 Este 0 -- -- 73
2018-10-18 15:00:00 15.2 12 Este 25 Este 0 -- -- 76
2018-10-18 14:00:00 13.7 13 Este 20 Este 0.6 -- -- 87
2018-10-18 13:00:00 13.2 9 Este 30 Este 2.4 -- -- 88
2018-10-18 12:00:00 13.5 19 Este 31 Este 2.5 -- -- 89
2018-10-18 11:00:00 13.9 7 Este 18 Nordeste 0 -- -- 87
2018-10-18 10:00:00 13.3 5 Este 20 Norte 1.1 -- -- 91
2018-10-18 09:00:00 13 6 Noroeste 63 Oeste 10.3 -- -- 91
2018-10-18 08:00:00 16.4 7 Sudoeste 18 Sudoeste 1.7 -- -- 89
2018-10-18 07:00:00 16.7 4 Sudoeste 21 Sudoeste 0.2 -- -- 89
2018-10-18 06:00:00 17.4 7 Sudoeste 19 Sudoeste 0.2 -- -- 84
2018-10-18 05:00:00 17.7 9 Sur 21 Sur 0 -- -- 81
2018-10-18 04:00:00 17.2 10 Sur 17 Sudoeste 0 -- -- 84
2018-10-18 03:00:00 17.3 10 Sudoeste 17 Sudoeste 0 -- -- 85
2018-10-18 02:00:00 17.6 12 Sudoeste 17 Sudoeste 0 -- -- 83
2018-10-18 01:00:00 17.6 9 Sudoeste 18 Sudoeste 0 -- -- 83
2018-10-18 00:00:00 17.5 11 Sur 14 Sudoeste 0 -- -- 82